Time;durP1;ratioP1;P1;durP2;ratioP2;P2;SDS_P1;SDS_P2;PMS_P1;PMS_P2;Temp;Humidity;BMP_temperature;BMP_pressure;BME280_temperature;BME280_humidity;BME280_pressure;Samples;Min_cycle;Max_cycle;Signal;HPM_P1;HPM_P2
2023/06/24 00:00:52;;;;;;;6.20;4.20;;;;;;;;;;107972;272;39707;-38
2023/06/24 00:03:40;;;;;;;5.50;3.90;;;;;;;;;;107970;276;43916;-38
2023/06/24 00:06:18;;;;;;;5.80;4.20;;;;;;;;;;107967;272;42251;-38
2023/06/24 00:09:00;;;;;;;6.20;4.20;;;;;;;;;;107993;276;39810;-37
2023/06/24 00:11:36;;;;;;;6.70;4.30;;;;;;;;;;107974;272;39883;-37
2023/06/24 00:14:10;;;;;;;5.30;3.80;;;;;;;;;;107988;276;42817;-37
2023/06/24 00:16:44;;;;;;;6.00;3.70;;;;;;;;;;108009;269;41847;-37
2023/06/24 00:19:19;;;;;;;5.90;3.90;;;;;;;;;;108008;269;38644;-37
2023/06/24 00:21:53;;;;;;;6.00;4.20;;;;;;;;;;107967;269;39940;-37
2023/06/24 00:24:27;;;;;;;5.80;3.70;;;;;;;;;;108061;273;42631;-37
2023/06/24 00:27:00;;;;;;;6.00;4.20;;;;;;;;;;108003;269;42122;-37
2023/06/24 00:29:33;;;;;;;6.00;4.20;;;;;;;;;;108045;276;38678;-37
2023/06/24 00:32:09;;;;;;;5.50;4.00;;;;;;;;;;107993;272;39871;-37
2023/06/24 00:34:43;;;;;;;5.50;3.90;;;;;;;;;;107898;269;175419;-37
2023/06/24 00:37:17;;;;;;;6.20;3.90;;;;;;;;;;107983;272;42119;-37
2023/06/24 00:39:50;;;;;;;6.50;4.00;;;;;;;;;;108018;272;38750;-37
2023/06/24 00:42:26;;;;;;;5.90;4.00;;;;;;;;;;108014;273;39627;-37
2023/06/24 00:45:00;;;;;;;5.40;3.90;;;;;;;;;;107836;269;196005;-37
2023/06/24 00:47:34;;;;;;;5.60;3.70;;;;;;;;;;108063;269;43279;-37
2023/06/24 00:50:11;;;;;;;5.40;3.80;;;;;;;;;;107992;272;38738;-37
2023/06/24 00:52:45;;;;;;;5.80;4.00;;;;;;;;;;108115;276;45302;-37
2023/06/24 00:55:21;;;;;;;5.40;3.80;;;;;;;;;;108020;273;42968;-37
2023/06/24 00:57:57;;;;;;;6.20;3.70;;;;;;;;;;108008;269;42168;-37
2023/06/24 01:00:32;;;;;;;6.20;4.10;;;;;;;;;;108004;276;38777;-37
2023/06/24 01:03:08;;;;;;;6.00;4.20;;;;;;;;;;108080;269;46382;-37
2023/06/24 01:05:42;;;;;;;6.20;3.90;;;;;;;;;;107986;272;42854;-37
2023/06/24 01:08:15;;;;;;;6.10;4.10;;;;;;;;;;107886;271;42155;-37
2023/06/24 01:10:48;;;;;;;5.80;4.00;;;;;;;;;;107977;276;38759;-37
2023/06/24 01:13:23;;;;;;;5.80;4.10;;;;;;;;;;107952;269;47207;-37
2023/06/24 01:15:57;;;;;;;6.60;3.70;;;;;;;;;;107879;272;175441;-37
2023/06/24 01:18:39;;;;;;;5.40;3.90;;;;;;;;;;108016;272;42685;-37
2023/06/24 01:21:19;;;;;;;5.40;4.10;;;;;;;;;;108011;272;38735;-37
2023/06/24 01:24:26;;;;;;;6.00;3.90;;;;;;;;;;107979;276;47842;-37
2023/06/24 01:27:29;;;;;;;5.60;4.00;;;;;;;;;;107973;272;42960;-37
2023/06/24 01:30:42;;;;;;;5.80;4.20;;;;;;;;;;108020;269;41928;-37
2023/06/24 01:33:25;;;;;;;5.90;4.10;;;;;;;;;;107868;269;176131;-43
2023/06/24 01:35:59;;;;;;;6.10;4.10;;;;;;;;;;108021;276;39851;-38
2023/06/24 01:38:41;;;;;;;5.50;4.00;;;;;;;;;;107917;276;174857;-37
2023/06/24 01:41:17;;;;;;;5.90;4.10;;;;;;;;;;108076;269;43157;-36
2023/06/24 01:44:16;;;;;;;5.90;4.30;;;;;;;;;;108035;276;38783;-38
2023/06/24 01:47:04;;;;;;;6.50;4.30;;;;;;;;;;108040;273;40793;-37
2023/06/24 01:49:47;;;;;;;6.20;4.30;;;;;;;;;;108142;272;43897;-36
2023/06/24 01:52:23;;;;;;;5.60;3.90;;;;;;;;;;107987;276;42143;-36
2023/06/24 01:55:00;;;;;;;6.00;4.40;;;;;;;;;;108044;276;38740;-36
2023/06/24 01:57:36;;;;;;;6.30;4.10;;;;;;;;;;108007;272;39651;-36
2023/06/24 02:00:13;;;;;;;6.20;4.30;;;;;;;;;;108029;269;44016;-38
2023/06/24 02:02:52;;;;;;;6.40;4.40;;;;;;;;;;107985;273;42147;-36
2023/06/24 02:05:27;;;;;;;6.00;4.30;;;;;;;;;;108007;269;38709;-36
2023/06/24 02:08:02;;;;;;;6.20;4.40;;;;;;;;;;108081;273;40070;-37
2023/06/24 02:10:39;;;;;;;6.60;4.50;;;;;;;;;;108024;276;42975;-37
2023/06/24 02:13:14;;;;;;;6.10;4.60;;;;;;;;;;107961;276;42272;-37
2023/06/24 02:15:49;;;;;;;6.30;4.60;;;;;;;;;;107998;273;39992;-37
2023/06/24 02:18:24;;;;;;;6.70;4.50;;;;;;;;;;108024;269;39727;-37
2023/06/24 02:21:01;;;;;;;6.90;4.60;;;;;;;;;;108013;276;42702;-37
2023/06/24 02:23:36;;;;;;;6.40;4.40;;;;;;;;;;107935;276;42044;-37
2023/06/24 02:26:11;;;;;;;6.30;4.70;;;;;;;;;;108010;269;39813;-37
2023/06/24 02:28:47;;;;;;;6.30;4.80;;;;;;;;;;107981;276;40881;-37
2023/06/24 02:31:21;;;;;;;6.10;4.60;;;;;;;;;;108023;276;42924;-37
2023/06/24 02:33:55;;;;;;;6.80;4.80;;;;;;;;;;107983;273;43184;-37
2023/06/24 02:36:28;;;;;;;6.50;4.80;;;;;;;;;;108023;269;38750;-37
2023/06/24 02:39:02;;;;;;;6.70;4.60;;;;;;;;;;108000;269;41011;-37
2023/06/24 02:41:36;;;;;;;6.40;4.60;;;;;;;;;;107985;269;42906;-38
2023/06/24 02:44:10;;;;;;;6.10;4.80;;;;;;;;;;107293;273;893010;-37
2023/06/24 02:46:47;;;;;;;6.60;4.80;;;;;;;;;;108009;276;39043;-37
2023/06/24 02:49:21;;;;;;;6.50;4.40;;;;;;;;;;108024;269;39682;-37
2023/06/24 02:51:56;;;;;;;6.30;4.70;;;;;;;;;;108010;269;43047;-37
2023/06/24 02:54:30;;;;;;;6.70;4.90;;;;;;;;;;107961;273;42139;-37
2023/06/24 02:57:05;;;;;;;6.20;4.50;;;;;;;;;;107965;269;38845;-37
2023/06/24 02:59:38;;;;;;;6.00;4.50;;;;;;;;;;108037;272;40012;-37
2023/06/24 03:02:12;;;;;;;6.60;4.80;;;;;;;;;;107962;273;44041;-37
2023/06/24 03:04:47;;;;;;;6.10;4.60;;;;;;;;;;107999;276;42087;-37
2023/06/24 03:07:25;;;;;;;6.50;4.60;;;;;;;;;;108018;272;38583;-37
2023/06/24 03:09:58;;;;;;;6.50;4.70;;;;;;;;;;108005;273;39694;-37
2023/06/24 03:12:33;;;;;;;7.00;5.00;;;;;;;;;;108030;269;43058;-37
2023/06/24 03:15:09;;;;;;;6.60;4.70;;;;;;;;;;107972;272;42121;-37
2023/06/24 03:17:44;;;;;;;6.20;4.80;;;;;;;;;;108004;276;38822;-37
2023/06/24 03:20:18;;;;;;;6.30;4.70;;;;;;;;;;107989;269;39686;-37
2023/06/24 03:22:56;;;;;;;6.70;4.60;;;;;;;;;;107990;272;42874;-37
2023/06/24 03:25:33;;;;;;;6.50;4.70;;;;;;;;;;107858;272;175460;-37
2023/06/24 03:28:10;;;;;;;6.30;4.70;;;;;;;;;;108006;276;38793;-37
2023/06/24 03:30:49;;;;;;;6.40;4.60;;;;;;;;;;107967;276;39754;-37
2023/06/24 03:33:26;;;;;;;6.20;4.70;;;;;;;;;;107979;276;42834;-37
2023/06/24 03:36:05;;;;;;;6.40;5.00;;;;;;;;;;107950;273;43135;-37
2023/06/24 03:38:43;;;;;;;6.60;4.60;;;;;;;;;;107990;272;39922;-37
2023/06/24 03:41:19;;;;;;;6.60;4.80;;;;;;;;;;107975;269;39757;-37
2023/06/24 03:43:55;;;;;;;6.40;4.50;;;;;;;;;;107982;269;42799;-37
2023/06/24 03:46:33;;;;;;;6.00;4.50;;;;;;;;;;107906;272;49158;-37
2023/06/24 03:49:12;;;;;;;6.40;4.80;;;;;;;;;;107835;272;175147;-37
2023/06/24 03:51:48;;;;;;;6.50;4.60;;;;;;;;;;107989;273;39692;-37
2023/06/24 03:54:26;;;;;;;6.90;4.60;;;;;;;;;;107965;273;44208;-37
2023/06/24 03:57:02;;;;;;;6.70;4.90;;;;;;;;;;107903;272;49773;-38
2023/06/24 03:59:35;;;;;;;6.40;4.70;;;;;;;;;;108013;269;38535;-37
2023/06/24 04:02:10;;;;;;;6.40;5.00;;;;;;;;;;107963;269;39698;-37
2023/06/24 04:04:50;;;;;;;6.80;4.90;;;;;;;;;;107927;269;43324;-37
2023/06/24 04:07:28;;;;;;;7.00;5.20;;;;;;;;;;107974;269;49260;-37
2023/06/24 04:10:02;;;;;;;7.30;5.10;;;;;;;;;;108003;276;39872;-37
2023/06/24 04:12:36;;;;;;;6.10;4.70;;;;;;;;;;107995;276;41318;-37
2023/06/24 04:15:33;;;;;;;7.10;5.10;;;;;;;;;;107952;269;42680;-37
2023/06/24 04:18:07;;;;;;;7.30;4.90;;;;;;;;;;108014;273;42021;-37
2023/06/24 04:20:41;;;;;;;6.80;5.00;;;;;;;;;;108004;269;38523;-37
2023/06/24 04:23:17;;;;;;;6.00;4.80;;;;;;;;;;107983;276;41003;-37
2023/06/24 04:25:50;;;;;;;7.40;5.30;;;;;;;;;;107968;276;42869;-37
2023/06/24 04:28:24;;;;;;;6.60;5.20;;;;;;;;;;107966;272;42142;-37
2023/06/24 04:30:58;;;;;;;6.50;4.90;;;;;;;;;;107977;276;38793;-37
2023/06/24 04:33:32;;;;;;;6.70;4.80;;;;;;;;;;107987;272;40825;-37
2023/06/24 04:36:07;;;;;;;6.10;4.70;;;;;;;;;;107943;272;44093;-37
2023/06/24 04:38:41;;;;;;;6.40;4.60;;;;;;;;;;108026;272;42185;-37
2023/06/24 04:41:14;;;;;;;7.10;4.70;;;;;;;;;;108005;276;38700;-38
2023/06/24 04:43:48;;;;;;;6.50;4.80;;;;;;;;;;108001;272;39640;-37
2023/06/24 04:46:22;;;;;;;6.60;4.80;;;;;;;;;;107937;269;42882;-37
2023/06/24 04:48:55;;;;;;;6.40;4.80;;;;;;;;;;107655;276;387995;-37
2023/06/24 04:51:28;;;;;;;6.20;4.80;;;;;;;;;;107944;274;38688;-38
2023/06/24 04:54:02;;;;;;;6.50;4.90;;;;;;;;;;107889;278;40802;-37
2023/06/24 04:56:35;;;;;;;6.60;4.80;;;;;;;;;;107987;272;42936;-38
2023/06/24 04:59:09;;;;;;;6.60;4.80;;;;;;;;;;108001;276;42185;-37
2023/06/24 05:01:42;;;;;;;5.70;4.20;;;;;;;;;;108025;276;38526;-37
2023/06/24 05:04:15;;;;;;;6.90;4.80;;;;;;;;;;107994;276;39688;-37
2023/06/24 05:06:51;;;;;;;6.30;4.50;;;;;;;;;;108001;272;42930;-37
2023/06/24 05:09:26;;;;;;;5.90;4.50;;;;;;;;;;107987;276;42090;-37
2023/06/24 05:12:01;;;;;;;6.60;4.70;;;;;;;;;;107994;276;40091;-37
2023/06/24 05:14:36;;;;;;;6.00;4.40;;;;;;;;;;107995;273;39573;-38
2023/06/24 05:17:13;;;;;;;6.50;4.70;;;;;;;;;;108000;269;44076;-38
2023/06/24 05:19:46;;;;;;;6.50;4.50;;;;;;;;;;107896;271;42036;-37
2023/06/24 05:22:20;;;;;;;7.40;4.40;;;;;;;;;;108028;276;38552;-37
2023/06/24 05:24:56;;;;;;;6.30;4.40;;;;;;;;;;108026;272;39698;-37
2023/06/24 05:27:29;;;;;;;7.00;4.80;;;;;;;;;;107752;277;175435;-37
2023/06/24 05:30:03;;;;;;;7.20;4.70;;;;;;;;;;108007;276;42475;-37
2023/06/24 05:32:36;;;;;;;6.90;4.60;;;;;;;;;;108003;269;39908;-37
2023/06/24 05:35:11;;;;;;;6.60;4.30;;;;;;;;;;107972;276;39703;-37
2023/06/24 05:37:44;;;;;;;6.90;4.60;;;;;;;;;;107987;272;44021;-37
2023/06/24 05:40:18;;;;;;;6.70;4.80;;;;;;;;;;107996;272;43293;-37
2023/06/24 05:42:53;;;;;;;6.70;4.30;;;;;;;;;;108063;272;39069;-37
2023/06/24 05:45:26;;;;;;;6.50;4.30;;;;;;;;;;108019;272;39481;-37
2023/06/24 05:48:01;;;;;;;6.30;4.30;;;;;;;;;;107940;272;42681;-37
2023/06/24 05:50:34;;;;;;;6.20;4.20;;;;;;;;;;108023;272;43263;-37
2023/06/24 05:53:07;;;;;;;6.10;4.20;;;;;;;;;;108008;272;38880;-37
2023/06/24 05:55:41;;;;;;;6.30;4.00;;;;;;;;;;107965;269;39452;-37
2023/06/24 05:58:14;;;;;;;6.70;4.10;;;;;;;;;;107955;273;42885;-37
2023/06/24 06:00:49;;;;;;;6.10;4.20;;;;;;;;;;107888;276;195167;-37
2023/06/24 06:03:25;;;;;;;6.30;4.40;;;;;;;;;;108056;276;38821;-37
2023/06/24 06:05:59;;;;;;;6.10;4.30;;;;;;;;;;108027;276;39710;-37
2023/06/24 06:08:34;;;;;;;6.10;4.20;;;;;;;;;;107839;276;175445;-37
2023/06/24 06:11:08;;;;;;;5.80;4.50;;;;;;;;;;107850;273;194121;-37
2023/06/24 06:13:42;;;;;;;6.60;4.50;;;;;;;;;;108021;273;38859;-37
2023/06/24 06:16:18;;;;;;;5.70;4.00;;;;;;;;;;108012;269;39867;-37
2023/06/24 06:18:52;;;;;;;6.00;4.20;;;;;;;;;;107951;269;44001;-37
2023/06/24 06:21:26;;;;;;;6.40;4.30;;;;;;;;;;108033;273;43565;-37
2023/06/24 06:24:00;;;;;;;5.70;4.30;;;;;;;;;;108016;276;39889;-37
2023/06/24 06:26:33;;;;;;;5.90;4.30;;;;;;;;;;107996;276;39751;-37
2023/06/24 06:29:11;;;;;;;6.30;4.30;;;;;;;;;;107937;277;42618;-37
2023/06/24 06:31:44;;;;;;;5.80;4.40;;;;;;;;;;108007;269;43300;-37
2023/06/24 06:34:21;;;;;;;6.10;3.90;;;;;;;;;;108053;276;38737;-37
2023/06/24 06:36:54;;;;;;;5.90;4.20;;;;;;;;;;107999;272;39481;-38
2023/06/24 06:39:29;;;;;;;6.50;4.40;;;;;;;;;;107861;273;43987;-37
2023/06/24 06:42:03;;;;;;;5.80;4.60;;;;;;;;;;108021;272;43295;-37
2023/06/24 06:44:37;;;;;;;5.60;4.20;;;;;;;;;;107992;269;38775;-38
2023/06/24 06:47:14;;;;;;;6.10;4.30;;;;;;;;;;107994;269;39801;-38
2023/06/24 06:49:48;;;;;;;7.10;4.40;;;;;;;;;;107944;269;42638;-39
2023/06/24 06:52:22;;;;;;;6.20;4.60;;;;;;;;;;108019;269;42089;-38
2023/06/24 06:54:58;;;;;;;5.80;4.50;;;;;;;;;;107347;276;893110;-37
2023/06/24 06:57:33;;;;;;;6.20;4.40;;;;;;;;;;107994;272;39649;-38
2023/06/24 07:00:10;;;;;;;5.90;4.40;;;;;;;;;;107851;269;42628;-38
2023/06/24 07:02:43;;;;;;;6.20;4.50;;;;;;;;;;108004;269;41857;-38
2023/06/24 07:05:17;;;;;;;6.20;4.60;;;;;;;;;;108015;269;38706;-38
2023/06/24 07:07:54;;;;;;;6.20;4.30;;;;;;;;;;108014;276;39491;-38
2023/06/24 07:10:28;;;;;;;5.70;4.30;;;;;;;;;;107976;269;42919;-38
2023/06/24 07:13:01;;;;;;;6.20;4.30;;;;;;;;;;108017;269;42272;-38
2023/06/24 07:15:34;;;;;;;6.80;4.50;;;;;;;;;;107942;269;38768;-38
2023/06/24 07:18:10;;;;;;;5.60;4.30;;;;;;;;;;107966;269;39665;-38
2023/06/24 07:20:44;;;;;;;6.10;4.40;;;;;;;;;;107979;276;42762;-38
2023/06/24 07:23:19;;;;;;;6.00;4.60;;;;;;;;;;107973;272;41930;-38
2023/06/24 07:25:53;;;;;;;5.70;4.30;;;;;;;;;;107981;272;38926;-38
2023/06/24 07:28:27;;;;;;;6.10;4.50;;;;;;;;;;108037;269;39722;-38
2023/06/24 07:31:01;;;;;;;5.90;4.40;;;;;;;;;;107990;272;42869;-38
2023/06/24 07:33:35;;;;;;;6.10;4.40;;;;;;;;;;108022;272;42207;-37
2023/06/24 07:36:09;;;;;;;6.00;4.30;;;;;;;;;;107991;269;39911;-37
2023/06/24 07:38:44;;;;;;;6.00;4.20;;;;;;;;;;108006;269;39484;-38
2023/06/24 07:41:20;;;;;;;5.80;4.40;;;;;;;;;;107929;272;43047;-37
2023/06/24 07:43:56;;;;;;;6.30;4.40;;;;;;;;;;107247;271;893350;-37
2023/06/24 07:46:29;;;;;;;6.80;4.00;;;;;;;;;;107841;276;174903;-37
2023/06/24 07:49:03;;;;;;;6.00;4.20;;;;;;;;;;107911;276;175150;-37
2023/06/24 07:51:40;;;;;;;5.90;4.30;;;;;;;;;;107943;269;48720;-37
2023/06/24 07:54:14;;;;;;;6.10;4.10;;;;;;;;;;108038;269;43133;-37
2023/06/24 07:56:48;;;;;;;5.60;4.20;;;;;;;;;;107977;269;38606;-37
2023/06/24 07:59:24;;;;;;;5.50;4.00;;;;;;;;;;107986;269;39742;-37
2023/06/24 08:01:58;;;;;;;5.70;4.20;;;;;;;;;;107945;269;50752;-37
2023/06/24 08:04:31;;;;;;;7.00;4.00;;;;;;;;;;107989;269;43253;-37
2023/06/24 08:07:07;;;;;;;5.40;4.10;;;;;;;;;;107843;276;175132;-37
2023/06/24 08:09:40;;;;;;;5.90;4.00;;;;;;;;;;108029;272;39429;-37
2023/06/24 08:12:15;;;;;;;5.50;4.00;;;;;;;;;;107924;269;48615;-38
2023/06/24 08:14:50;;;;;;;6.20;4.10;;;;;;;;;;108000;272;42246;-37
2023/06/24 08:17:24;;;;;;;6.20;3.80;;;;;;;;;;107873;272;191793;-37
2023/06/24 08:19:57;;;;;;;6.40;4.10;;;;;;;;;;108000;269;39798;-37
2023/06/24 08:22:31;;;;;;;5.70;4.10;;;;;;;;;;107751;272;175432;-38
2023/06/24 08:25:07;;;;;;;6.30;4.00;;;;;;;;;;108002;272;42097;-37
2023/06/24 08:27:41;;;;;;;6.00;3.80;;;;;;;;;;108022;269;40084;-37
2023/06/24 08:30:16;;;;;;;5.40;3.80;;;;;;;;;;107901;271;39440;-37
2023/06/24 08:32:52;;;;;;;6.40;3.70;;;;;;;;;;107964;276;49391;-37
2023/06/24 08:35:32;;;;;;;5.50;3.40;;;;;;;;;;108012;276;42142;-38
2023/06/24 08:38:05;;;;;;;5.90;3.60;;;;;;;;;;107988;272;38873;-37
2023/06/24 08:40:40;;;;;;;5.20;3.70;;;;;;;;;;107992;276;39823;-37
2023/06/24 08:43:15;;;;;;;6.10;3.60;;;;;;;;;;108085;272;48586;-37
2023/06/24 08:45:49;;;;;;;5.10;3.50;;;;;;;;;;107974;276;42115;-37
2023/06/24 08:48:25;;;;;;;6.00;3.70;;;;;;;;;;107986;276;40082;-37
2023/06/24 08:51:02;;;;;;;5.30;3.90;;;;;;;;;;108033;276;39788;-38
2023/06/24 08:53:37;;;;;;;5.60;3.90;;;;;;;;;;107945;269;49874;-37
2023/06/24 08:56:10;;;;;;;5.00;3.50;;;;;;;;;;108025;269;43392;-37
2023/06/24 08:58:44;;;;;;;5.40;3.90;;;;;;;;;;108022;276;39931;-37
2023/06/24 09:01:18;;;;;;;5.70;4.00;;;;;;;;;;108015;276;39696;-37
2023/06/24 09:03:56;;;;;;;5.10;3.60;;;;;;;;;;107978;276;48845;-37
2023/06/24 09:06:30;;;;;;;5.70;3.60;;;;;;;;;;107985;269;42095;-37
2023/06/24 09:09:03;;;;;;;5.50;4.10;;;;;;;;;;108012;272;40066;-37
2023/06/24 09:11:36;;;;;;;6.30;4.10;;;;;;;;;;107879;273;175461;-37
2023/06/24 09:14:16;;;;;;;5.70;4.10;;;;;;;;;;107936;276;50914;-37
2023/06/24 09:17:00;;;;;;;6.00;4.00;;;;;;;;;;107994;276;41887;-37
2023/06/24 09:19:36;;;;;;;5.70;4.00;;;;;;;;;;108034;272;38805;-37
2023/06/24 09:22:17;;;;;;;5.50;4.00;;;;;;;;;;107983;272;39644;-37
2023/06/24 09:24:51;;;;;;;5.20;3.90;;;;;;;;;;107999;269;42866;-37
2023/06/24 09:27:26;;;;;;;6.10;4.00;;;;;;;;;;107990;276;42096;-37
2023/06/24 09:29:59;;;;;;;6.20;4.10;;;;;;;;;;107986;276;38614;-38
2023/06/24 09:32:34;;;;;;;5.10;3.70;;;;;;;;;;107869;268;40993;-37
2023/06/24 09:35:12;;;;;;;6.70;4.30;;;;;;;;;;107973;272;42589;-37
2023/06/24 09:37:51;;;;;;;6.70;3.90;;;;;;;;;;108027;272;42271;-37
2023/06/24 09:40:29;;;;;;;8.70;4.70;;;;;;;;;;107994;269;38951;-37
2023/06/24 09:43:03;;;;;;;6.90;4.60;;;;;;;;;;107938;276;39480;-37
2023/06/24 09:45:37;;;;;;;6.70;4.10;;;;;;;;;;107991;272;42850;-37
2023/06/24 09:48:10;;;;;;;6.00;4.20;;;;;;;;;;107992;269;41923;-37
2023/06/24 09:50:44;;;;;;;6.90;4.10;;;;;;;;;;107963;269;38756;-36
2023/06/24 09:53:18;;;;;;;6.50;4.40;;;;;;;;;;108036;269;39481;-37
2023/06/24 09:55:53;;;;;;;6.20;4.30;;;;;;;;;;107388;272;892247;-37
2023/06/24 09:58:27;;;;;;;6.10;4.30;;;;;;;;;;108002;273;42513;-37
2023/06/24 10:01:04;;;;;;;6.00;4.20;;;;;;;;;;108027;273;38864;-37
2023/06/24 10:03:40;;;;;;;5.50;4.10;;;;;;;;;;107963;276;39461;-37
2023/06/24 10:06:14;;;;;;;6.10;4.20;;;;;;;;;;108002;273;42630;-37
2023/06/24 10:08:47;;;;;;;6.50;4.20;;;;;;;;;;107976;276;43505;-37
2023/06/24 10:11:23;;;;;;;6.20;4.00;;;;;;;;;;107998;276;38861;-37
2023/06/24 10:13:57;;;;;;;7.10;4.30;;;;;;;;;;107977;276;39703;-37
2023/06/24 10:16:31;;;;;;;6.10;4.10;;;;;;;;;;108000;273;42668;-37
2023/06/24 10:19:08;;;;;;;5.70;3.90;;;;;;;;;;108072;269;43358;-38
2023/06/24 10:22:00;;;;;;;5.40;4.00;;;;;;;;;;107973;276;38800;-38
2023/06/24 10:24:39;;;;;;;6.30;4.10;;;;;;;;;;108018;273;39645;-38
2023/06/24 10:27:26;;;;;;;5.70;3.90;;;;;;;;;;108001;276;45069;-38
2023/06/24 10:30:09;;;;;;;6.40;4.10;;;;;;;;;;107992;273;41863;-37
2023/06/24 10:32:47;;;;;;;5.70;4.50;;;;;;;;;;107969;269;39939;-37
2023/06/24 10:35:30;;;;;;;5.90;4.20;;;;;;;;;;107931;276;40174;-37
2023/06/24 10:38:04;;;;;;;6.00;4.30;;;;;;;;;;108002;276;42836;-37
2023/06/24 10:40:45;;;;;;;6.00;4.10;;;;;;;;;;107739;277;175497;-39
2023/06/24 10:43:41;;;;;;;6.50;4.00;;;;;;;;;;108004;273;38575;-42
2023/06/24 10:46:20;;;;;;;6.30;4.20;;;;;;;;;;107894;269;45589;-39
2023/06/24 10:48:53;;;;;;;6.20;3.80;;;;;;;;;;107961;273;42839;-37
2023/06/24 10:51:28;;;;;;;6.40;4.10;;;;;;;;;;107925;276;41946;-39
2023/06/24 10:54:01;;;;;;;5.60;4.00;;;;;;;;;;107955;269;38773;-39
2023/06/24 10:56:38;;;;;;;6.30;4.00;;;;;;;;;;107910;277;45558;-38
2023/06/24 10:59:12;;;;;;;6.40;4.50;;;;;;;;;;107938;269;45620;-39
2023/06/24 11:01:56;;;;;;;5.70;4.30;;;;;;;;;;107986;269;42135;-40
2023/06/24 11:04:31;;;;;;;6.40;4.50;;;;;;;;;;107846;276;38850;-38
2023/06/24 11:07:06;;;;;;;5.90;4.30;;;;;;;;;;107931;277;46866;-41
2023/06/24 11:09:41;;;;;;;6.70;4.00;;;;;;;;;;107954;273;42848;-41
2023/06/24 11:12:15;;;;;;;6.00;4.20;;;;;;;;;;108001;276;42118;-38
2023/06/24 11:14:48;;;;;;;6.00;4.20;;;;;;;;;;107953;278;38860;-38
2023/06/24 11:17:25;;;;;;;5.60;4.10;;;;;;;;;;107888;270;47099;-39
2023/06/24 11:20:00;;;;;;;6.00;4.30;;;;;;;;;;108018;272;42935;-38
2023/06/24 11:22:35;;;;;;;6.20;4.20;;;;;;;;;;108021;277;42134;-40
2023/06/24 11:25:23;;;;;;;5.70;4.20;;;;;;;;;;107799;278;38789;-39
2023/06/24 11:27:58;;;;;;;18.90;6.40;;;;;;;;;;107888;269;39977;-39
2023/06/24 11:30:43;;;;;;;8.40;4.50;;;;;;;;;;107919;277;43323;-40
2023/06/24 11:33:33;;;;;;;6.20;4.30;;;;;;;;;;108024;273;42046;-39
2023/06/24 11:36:13;;;;;;;6.30;4.40;;;;;;;;;;107934;269;38770;-42
2023/06/24 11:38:47;;;;;;;6.30;4.40;;;;;;;;;;107971;276;39628;-38
2023/06/24 11:41:28;;;;;;;6.60;4.40;;;;;;;;;;107919;270;42903;-41
2023/06/24 11:44:02;;;;;;;6.80;4.50;;;;;;;;;;107875;270;42089;-39
2023/06/24 11:46:40;;;;;;;6.30;4.30;;;;;;;;;;107967;269;38787;-39
2023/06/24 11:49:14;;;;;;;7.30;4.50;;;;;;;;;;107819;277;175531;-40
2023/06/24 11:51:52;;;;;;;6.60;4.30;;;;;;;;;;107967;269;42755;-37
2023/06/24 11:54:26;;;;;;;5.90;3.90;;;;;;;;;;107885;277;42415;-38
2023/06/24 11:56:59;;;;;;;7.80;4.30;;;;;;;;;;107882;278;38822;-38
2023/06/24 11:59:34;;;;;;;6.30;4.30;;;;;;;;;;107974;269;39628;-40
2023/06/24 12:02:20;;;;;;;6.10;4.30;;;;;;;;;;107983;273;44002;-39
2023/06/24 12:04:57;;;;;;;6.20;4.10;;;;;;;;;;107976;272;41851;-38
2023/06/24 12:07:31;;;;;;;6.90;4.30;;;;;;;;;;107977;273;38768;-38
2023/06/24 12:10:10;;;;;;;5.80;4.20;;;;;;;;;;107905;269;40996;-38
2023/06/24 12:12:45;;;;;;;;;;;;;;;;;;108004;273;42954;-38
2023/06/24 12:15:22;;;;;;;5.80;4.00;;;;;;;;;;107964;269;41848;-38
2023/06/24 12:17:56;;;;;;;5.90;4.00;;;;;;;;;;107915;269;40166;-38
2023/06/24 12:20:32;;;;;;;5.80;4.00;;;;;;;;;;107868;279;39697;-38
2023/06/24 12:23:15;;;;;;;6.40;4.30;;;;;;;;;;107914;276;42805;-38
2023/06/24 12:25:51;;;;;;;6.40;4.00;;;;;;;;;;107880;269;42340;-38
2023/06/24 12:28:26;;;;;;;6.60;4.40;;;;;;;;;;107877;269;39202;-38
2023/06/24 12:31:00;;;;;;;5.80;4.30;;;;;;;;;;108013;273;39697;-38
2023/06/24 12:33:34;;;;;;;6.60;4.20;;;;;;;;;;107791;276;174874;-38
2023/06/24 12:36:17;;;;;;;6.10;4.30;;;;;;;;;;107893;269;43281;-38
2023/06/24 12:38:53;;;;;;;6.70;4.40;;;;;;;;;;107853;276;46738;-38
2023/06/24 12:41:28;;;;;;;6.30;4.40;;;;;;;;;;107999;272;40744;-37
2023/06/24 12:44:01;;;;;;;5.40;4.20;;;;;;;;;;107999;272;42778;-37
2023/06/24 12:46:34;;;;;;;5.40;4.10;;;;;;;;;;107978;276;42109;-37
2023/06/24 12:49:09;;;;;;;6.00;4.60;;;;;;;;;;107537;272;348150;-38
2023/06/24 12:51:42;;;;;;;6.80;4.10;;;;;;;;;;107970;272;39822;-38
2023/06/24 12:54:17;;;;;;;6.00;4.30;;;;;;;;;;107992;273;42600;-38
2023/06/24 12:56:50;;;;;;;5.60;4.00;;;;;;;;;;108013;276;42399;-38
2023/06/24 12:59:37;;;;;;;7.10;4.10;;;;;;;;;;107945;269;45545;-37
2023/06/24 13:02:11;;;;;;;6.50;4.00;;;;;;;;;;108002;269;39727;-38
2023/06/24 13:04:47;;;;;;;6.70;4.40;;;;;;;;;;107981;269;44023;-38
2023/06/24 13:07:23;;;;;;;7.00;4.60;;;;;;;;;;108026;269;42147;-38
2023/06/24 13:09:57;;;;;;;6.20;4.30;;;;;;;;;;107951;276;44331;-38
2023/06/24 13:12:30;;;;;;;6.40;4.40;;;;;;;;;;108014;272;39710;-37
2023/06/24 13:15:04;;;;;;;6.20;4.20;;;;;;;;;;108020;276;42854;-37
2023/06/24 13:17:38;;;;;;;5.90;4.00;;;;;;;;;;107994;269;42147;-38
2023/06/24 13:20:13;;;;;;;5.70;3.80;;;;;;;;;;108087;272;44325;-38
2023/06/24 13:22:47;;;;;;;6.30;3.80;;;;;;;;;;108011;269;40711;-42
2023/06/24 13:25:21;;;;;;;5.20;3.60;;;;;;;;;;107972;272;42888;-37
2023/06/24 13:27:58;;;;;;;5.60;3.50;;;;;;;;;;108000;276;41924;-38
2023/06/24 13:30:31;;;;;;;6.10;3.40;;;;;;;;;;108110;272;45534;-37
2023/06/24 13:33:05;;;;;;;5.00;3.40;;;;;;;;;;107977;274;39842;-38
2023/06/24 13:35:38;;;;;;;5.10;3.10;;;;;;;;;;107997;272;42872;-37
2023/06/24 13:38:13;;;;;;;5.60;3.20;;;;;;;;;;107984;276;42023;-38
2023/06/24 13:40:48;;;;;;;4.50;3.20;;;;;;;;;;107974;276;44392;-38
2023/06/24 13:43:24;;;;;;;5.50;3.60;;;;;;;;;;108021;272;39444;-38
2023/06/24 13:45:57;;;;;;;6.00;3.60;;;;;;;;;;107356;276;892754;-38
2023/06/24 13:48:30;;;;;;;5.30;3.20;;;;;;;;;;107991;272;44469;-39
2023/06/24 13:51:03;;;;;;;5.40;3.60;;;;;;;;;;107958;276;44339;-38
2023/06/24 13:53:38;;;;;;;5.40;3.50;;;;;;;;;;107983;269;39597;-39
2023/06/24 13:56:14;;;;;;;5.60;3.40;;;;;;;;;;108010;272;42838;-39
2023/06/24 13:58:48;;;;;;;5.90;3.60;;;;;;;;;;107969;269;43282;-39
2023/06/24 14:01:24;;;;;;;5.50;3.90;;;;;;;;;;108004;269;45799;-39
2023/06/24 14:03:58;;;;;;;6.90;4.20;;;;;;;;;;108024;276;39457;-39
2023/06/24 14:06:32;;;;;;;6.30;4.20;;;;;;;;;;108015;276;44005;-39
2023/06/24 14:09:05;;;;;;;6.20;4.40;;;;;;;;;;108029;269;42123;-38
2023/06/24 14:11:39;;;;;;;6.80;4.20;;;;;;;;;;107951;273;46665;-38
2023/06/24 14:14:14;;;;;;;7.80;4.50;;;;;;;;;;108036;276;39675;-39
2023/06/24 14:16:47;;;;;;;6.80;4.60;;;;;;;;;;107901;276;42856;-39
2023/06/24 14:19:20;;;;;;;8.40;5.20;;;;;;;;;;107977;276;43250;-39
2023/06/24 14:21:57;;;;;;;10.30;5.60;;;;;;;;;;107972;276;45196;-40
2023/06/24 14:24:30;;;;;;;7.90;5.20;;;;;;;;;;108027;269;39695;-39
2023/06/24 14:27:04;;;;;;;9.70;6.40;;;;;;;;;;107927;273;42818;-41
2023/06/24 14:29:39;;;;;;;10.40;7.00;;;;;;;;;;107983;269;43371;-45
2023/06/24 14:32:13;;;;;;;7.70;5.40;;;;;;;;;;107930;276;45787;-44
2023/06/24 14:34:47;;;;;;;8.20;5.70;;;;;;;;;;107970;269;39831;-42
2023/06/24 14:37:26;;;;;;;7.90;5.60;;;;;;;;;;107948;276;42886;-44
2023/06/24 14:39:59;;;;;;;8.20;5.40;;;;;;;;;;107976;276;41952;-44
2023/06/24 14:42:32;;;;;;;7.10;5.00;;;;;;;;;;107939;276;45657;-44
2023/06/24 14:45:09;;;;;;;6.90;4.60;;;;;;;;;;107990;273;39989;-43
2023/06/24 14:47:44;;;;;;;6.30;4.20;;;;;;;;;;107914;269;42872;-43
2023/06/24 14:50:17;;;;;;;8.10;4.50;;;;;;;;;;108008;272;42693;-41
2023/06/24 14:52:54;;;;;;;6.80;4.40;;;;;;;;;;107934;272;44697;-42
2023/06/24 14:55:28;;;;;;;6.50;4.40;;;;;;;;;;107979;269;39681;-42
2023/06/24 14:58:02;;;;;;;6.30;4.50;;;;;;;;;;107840;277;175451;-42
2023/06/24 15:00:35;;;;;;;7.00;4.70;;;;;;;;;;107867;273;175452;-42
2023/06/24 15:03:09;;;;;;;6.20;4.30;;;;;;;;;;107932;272;46507;-42
2023/06/24 15:05:44;;;;;;;6.10;4.50;;;;;;;;;;108005;273;39445;-41
2023/06/24 15:08:21;;;;;;;5.80;4.50;;;;;;;;;;108018;273;42805;-43
2023/06/24 15:10:54;;;;;;;6.70;4.40;;;;;;;;;;107996;269;41897;-42
2023/06/24 15:13:29;;;;;;;6.50;4.30;;;;;;;;;;107970;269;44500;-42
2023/06/24 15:16:06;;;;;;;7.00;4.70;;;;;;;;;;107954;269;39774;-43
2023/06/24 15:18:50;;;;;;;6.90;4.50;;;;;;;;;;107987;273;42812;-43
2023/06/24 15:21:26;;;;;;;7.50;5.00;;;;;;;;;;107946;276;42300;-44
2023/06/24 15:24:10;;;;;;;8.70;5.70;;;;;;;;;;107990;269;44713;-38
2023/06/24 15:26:43;;;;;;;7.20;4.80;;;;;;;;;;107949;277;40850;-46
2023/06/24 15:29:18;;;;;;;7.80;5.00;;;;;;;;;;107846;269;175442;-46
2023/06/24 15:31:51;;;;;;;7.40;4.80;;;;;;;;;;107969;269;42107;-43
2023/06/24 15:34:25;;;;;;;7.20;4.80;;;;;;;;;;107795;273;199240;-43